KOKC/OKC METAR and TAF weather

Enter ICAO airport designator
Station Type Date Time Source
KOKC METAR 2019/10/15 08:33 UTC NOAA

KOKC 150833Z 18011KT 2SM -DZ BR OVC002 19/19 A2987 RMK AO2 DZB10 P0000 T01940194


Station Type Date Time Source
KOKC Decoded METAR 2019/10/15 08:33 UTC NOAA

WILL ROGERS WORLD AIRPORT, OK, United States (KOKC) 35-23N 97-36W 390M
Oct 15, 2019 - 04:33 AM EDT / 2019.10.15 0833 UTC
Wind: from the S (180 degrees) at 13 MPH (11 KT):0
Visibility: 2 mile(s):0
Sky conditions: overcast
Weather: light drizzle; mist
Precipitation last hour: A trace
Temperature: 66.9 F (19.4 C)
Dew Point: 66.9 F (19.4 C)
Relative Humidity: 100%
Pressure (altimeter): 29.87 in. Hg (1011 hPa)
ob: KOKC 150833Z 18011KT 2SM -DZ BR OVC002 19/19 A2987 RMK AO2 DZB10 P0000 T01940194
cycle: 8

Station Type Date Time Source
KOKC TAF 2019/10/15 06:22 UTC NOAA

TAF KOKC 150520Z 1506/1606 16011KT P6SM BKN008
FM150800 19011KT 4SM BR OVC005
FM151400 20008KT P6SM BKN015
FM151700 34010KT P6SM BKN030
FM152000 35014G22KT P6SM SCT040

Example: see airport list